createdAt,value
2022-10-17T00:00:36.823Z,8.60
2022-10-17T00:03:03.555Z,9.27
2022-10-17T00:05:30.284Z,7.63
2022-10-17T00:07:57.259Z,8.03
2022-10-17T00:10:24.378Z,7.50
2022-10-17T00:12:51.798Z,7.73
2022-10-17T00:15:20.264Z,8.50
2022-10-17T00:17:46.857Z,9.50
2022-10-17T00:20:14.009Z,8.73
2022-10-17T00:22:41.097Z,8.00
2022-10-17T00:25:08.308Z,7.70
2022-10-17T00:27:40.246Z,7.73
2022-10-17T00:30:10.301Z,10.57
2022-10-17T00:32:37.342Z,9.33
2022-10-17T00:35:04.332Z,10.63
2022-10-17T00:37:32.005Z,7.73
2022-10-17T00:39:59.273Z,7.10
2022-10-17T00:42:27.141Z,9.03
2022-10-17T00:45:08.680Z,8.67
2022-10-17T00:47:36.536Z,9.90
2022-10-17T00:50:06.565Z,7.70
2022-10-17T00:52:33.937Z,9.00
2022-10-17T00:55:23.280Z,8.87
2022-10-17T00:57:50.828Z,7.00
2022-10-17T01:00:19.112Z,10.10
2022-10-17T01:02:45.952Z,9.00
2022-10-17T01:05:13.993Z,9.90
2022-10-17T01:07:44.015Z,8.53
2022-10-17T01:10:12.780Z,6.60
2022-10-17T01:12:59.613Z,10.17
2022-10-17T01:15:37.545Z,9.53
2022-10-17T01:18:13.656Z,7.67
2022-10-17T01:21:18.132Z,6.37
2022-10-17T01:24:12.763Z,10.33
2022-10-17T01:27:16.641Z,7.63
2022-10-17T01:29:46.284Z,6.93
2022-10-17T01:32:39.595Z,6.27
2022-10-17T01:35:18.330Z,6.87
2022-10-17T01:38:21.478Z,6.90
2022-10-17T01:40:56.454Z,9.13
2022-10-17T01:43:33.903Z,7.20
2022-10-17T01:46:34.331Z,8.33
2022-10-17T01:49:02.672Z,7.50
2022-10-17T01:51:38.373Z,8.47
2022-10-17T01:54:24.198Z,7.10
2022-10-17T01:56:56.079Z,10.20
2022-10-17T01:59:31.781Z,5.73
2022-10-17T02:01:59.363Z,11.10
2022-10-17T02:04:26.676Z,14.17
2022-10-17T02:06:53.259Z,12.90
2022-10-17T02:09:26.284Z,8.10
2022-10-17T02:12:20.697Z,7.50
2022-10-17T02:15:15.792Z,6.70
2022-10-17T02:18:07.333Z,9.50
2022-10-17T02:21:05.996Z,7.03
2022-10-17T02:23:42.029Z,11.37
2022-10-17T02:26:38.311Z,7.10
2022-10-17T02:29:29.198Z,7.30
2022-10-17T02:32:09.612Z,9.60
2022-10-17T02:34:41.275Z,8.10
2022-10-17T02:37:10.560Z,6.10
2022-10-17T02:39:39.509Z,8.17
2022-10-17T02:42:09.130Z,7.93
2022-10-17T02:44:40.137Z,7.40
2022-10-17T02:47:18.895Z,9.03
2022-10-17T02:49:51.655Z,8.13
2022-10-17T02:52:37.168Z,10.03
2022-10-17T02:55:40.785Z,9.13
2022-10-17T02:58:12.170Z,12.37
2022-10-17T03:00:40.520Z,9.63
2022-10-17T03:03:24.727Z,9.10
2022-10-17T03:05:52.391Z,7.50
2022-10-17T03:08:23.202Z,11.60
2022-10-17T03:10:50.463Z,15.07
2022-10-17T03:13:19.207Z,8.00
2022-10-17T03:15:46.645Z,8.33
2022-10-17T03:18:13.972Z,13.10
2022-10-17T03:20:40.574Z,7.97
2022-10-17T03:23:08.539Z,6.70
2022-10-17T03:25:35.889Z,7.30
2022-10-17T03:28:02.588Z,7.53
2022-10-17T03:30:29.363Z,7.37
2022-10-17T03:32:57.829Z,7.93
2022-10-17T03:35:24.896Z,7.60
2022-10-17T03:37:52.353Z,7.17
2022-10-17T03:40:21.123Z,8.17
2022-10-17T03:42:47.775Z,6.20
2022-10-17T03:45:14.553Z,12.13
2022-10-17T03:47:41.813Z,7.00
2022-10-17T03:50:09.336Z,9.17
2022-10-17T03:52:37.514Z,10.50
2022-10-17T03:55:04.477Z,6.87
2022-10-17T03:57:31.466Z,6.83
2022-10-17T03:59:58.817Z,6.70
2022-10-17T04:02:25.472Z,7.10
2022-10-17T04:04:52.255Z,7.00
2022-10-17T04:07:18.879Z,6.17
2022-10-17T04:09:47.668Z,6.10
2022-10-17T04:12:18.640Z,7.40
2022-10-17T04:14:45.229Z,7.10
2022-10-17T04:17:11.832Z,6.53
2022-10-17T04:19:38.877Z,11.00
2022-10-17T04:22:08.338Z,8.00
2022-10-17T04:24:37.088Z,10.97
2022-10-17T04:27:09.756Z,6.47
2022-10-17T04:29:40.330Z,7.87
2022-10-17T04:32:16.125Z,8.07
2022-10-17T04:34:50.111Z,6.53
2022-10-17T04:37:17.961Z,5.53
2022-10-17T04:39:46.113Z,9.50
2022-10-17T04:42:12.736Z,8.90
2022-10-17T04:44:40.069Z,13.80
2022-10-17T04:47:08.305Z,14.27
2022-10-17T04:49:34.974Z,6.53
2022-10-17T04:52:08.546Z,7.47
2022-10-17T04:54:42.133Z,6.90
2022-10-17T04:57:10.382Z,8.90
2022-10-17T04:59:38.737Z,7.27
2022-10-17T05:02:16.008Z,7.90
2022-10-17T05:04:42.679Z,9.03
2022-10-17T05:07:10.904Z,8.00
2022-10-17T05:09:46.508Z,7.80
2022-10-17T05:12:13.200Z,11.97
2022-10-17T05:14:43.292Z,6.23
2022-10-17T05:17:09.900Z,11.10
2022-10-17T05:19:37.156Z,7.77
2022-10-17T05:22:04.664Z,9.70
2022-10-17T05:24:31.264Z,6.93
2022-10-17T05:26:58.051Z,8.00
2022-10-17T05:29:24.693Z,10.97
2022-10-17T05:31:57.736Z,10.20
2022-10-17T05:34:24.997Z,9.17
2022-10-17T05:36:51.838Z,8.50
2022-10-17T05:39:23.169Z,5.77
2022-10-17T05:41:52.315Z,6.53
2022-10-17T05:44:18.921Z,9.17
2022-10-17T05:46:51.527Z,8.00
2022-10-17T05:49:31.936Z,6.17
2022-10-17T05:52:00.439Z,6.50
2022-10-17T05:54:27.810Z,9.47
2022-10-17T05:56:56.367Z,9.00
2022-10-17T05:59:27.763Z,6.53
2022-10-17T06:02:06.770Z,5.67
2022-10-17T06:04:34.519Z,6.77
2022-10-17T06:07:02.242Z,6.70
2022-10-17T06:09:30.660Z,7.63
2022-10-17T06:11:57.277Z,8.07
2022-10-17T06:14:23.879Z,6.00
2022-10-17T06:16:53.660Z,7.70
2022-10-17T06:19:20.266Z,9.33
2022-10-17T06:21:47.096Z,5.13
2022-10-17T06:24:17.737Z,9.50
2022-10-17T06:26:44.422Z,8.00
2022-10-17T06:29:13.432Z,7.33
2022-10-17T06:31:45.393Z,8.97
2022-10-17T06:34:12.134Z,7.30
2022-10-17T06:36:40.183Z,10.87
2022-10-17T06:39:07.978Z,8.13
2022-10-17T06:41:51.722Z,9.27
2022-10-17T06:44:19.681Z,7.13
2022-10-17T06:47:05.201Z,6.80
2022-10-17T06:49:34.133Z,6.83
2022-10-17T06:52:24.927Z,9.30
2022-10-17T06:55:21.339Z,6.73
2022-10-17T06:58:01.805Z,7.00
2022-10-17T07:00:48.743Z,6.80
2022-10-17T07:03:16.769Z,8.30
2022-10-17T07:05:50.788Z,5.20
2022-10-17T07:08:17.432Z,8.10
2022-10-17T07:10:44.307Z,5.30
2022-10-17T07:13:10.984Z,8.60
2022-10-17T07:15:38.034Z,5.83
2022-10-17T07:18:05.828Z,8.23
2022-10-17T07:20:32.788Z,5.80
2022-10-17T07:22:59.351Z,8.60
2022-10-17T07:25:25.995Z,7.67
2022-10-17T07:27:57.275Z,6.60
2022-10-17T07:30:24.475Z,5.67
2022-10-17T07:33:02.153Z,6.20
2022-10-17T07:35:28.845Z,7.63
2022-10-17T07:37:56.162Z,8.33
2022-10-17T07:40:22.779Z,8.10
2022-10-17T07:42:49.449Z,6.60
2022-10-17T07:45:16.435Z,5.67
2022-10-17T07:47:43.997Z,6.13
2022-10-17T07:50:13.339Z,5.70
2022-10-17T07:52:39.931Z,6.87
2022-10-17T07:55:07.747Z,6.47
2022-10-17T07:57:34.364Z,8.63
2022-10-17T08:00:00.938Z,7.73
2022-10-17T08:02:28.421Z,6.00
2022-10-17T08:04:55.277Z,4.73
2022-10-17T08:07:26.842Z,6.73
2022-10-17T08:09:56.029Z,6.20
2022-10-17T08:12:22.833Z,5.77
2022-10-17T08:14:49.421Z,4.87
2022-10-17T08:17:15.992Z,7.00
2022-10-17T08:19:42.563Z,8.37
2022-10-17T08:22:09.438Z,6.37
2022-10-17T08:24:36.156Z,5.40
2022-10-17T08:27:03.848Z,5.00
2022-10-17T08:29:32.630Z,4.37
2022-10-17T08:32:01.380Z,6.80
2022-10-17T08:34:29.026Z,7.23
2022-10-17T08:36:55.677Z,7.37
2022-10-17T08:39:22.357Z,5.00
2022-10-17T08:42:03.158Z,7.67
2022-10-17T08:44:51.293Z,7.10
2022-10-17T08:47:34.779Z,6.87
2022-10-17T08:50:05.756Z,4.70
2022-10-17T08:52:56.852Z,5.83
2022-10-17T08:55:42.790Z,4.80
2022-10-17T08:58:19.896Z,8.67
2022-10-17T09:01:13.031Z,6.10
2022-10-17T09:03:59.327Z,5.03
2022-10-17T09:06:32.317Z,10.17
2022-10-17T09:09:01.591Z,6.43
2022-10-17T09:11:56.559Z,7.67
2022-10-17T09:14:47.858Z,4.73
2022-10-17T09:17:56.981Z,6.20
2022-10-17T09:20:46.889Z,4.03
2022-10-17T09:23:18.357Z,8.73
2022-10-17T09:25:47.997Z,5.23
2022-10-17T09:28:20.959Z,6.93
2022-10-17T09:31:18.591Z,6.53
2022-10-17T09:33:54.403Z,5.00
2022-10-17T09:36:27.133Z,9.50
2022-10-17T09:38:56.552Z,6.00
2022-10-17T09:41:47.438Z,7.13
2022-10-17T09:44:15.983Z,5.93
2022-10-17T09:46:51.693Z,8.07
2022-10-17T09:49:26.032Z,6.90
2022-10-17T09:51:53.191Z,7.03
2022-10-17T09:54:34.073Z,7.47
2022-10-17T09:57:11.304Z,6.50
2022-10-17T09:59:38.966Z,4.40
2022-10-17T10:02:23.839Z,5.63
2022-10-17T10:05:04.565Z,5.83
2022-10-17T10:07:37.379Z,8.07
2022-10-17T10:10:25.443Z,6.50
2022-10-17T10:13:12.467Z,5.63
2022-10-17T10:15:41.464Z,7.10
2022-10-17T10:18:26.487Z,8.33
2022-10-17T10:21:13.153Z,6.03
2022-10-17T10:23:42.600Z,6.10
2022-10-17T10:26:23.045Z,6.63
2022-10-17T10:28:57.896Z,12.30
2022-10-17T10:31:34.524Z,6.30
2022-10-17T10:34:13.117Z,3.90
2022-10-17T10:36:58.028Z,4.77
2022-10-17T10:39:31.819Z,4.40
2022-10-17T10:42:01.051Z,5.80
2022-10-17T10:44:30.712Z,5.70
2022-10-17T10:47:26.517Z,6.50
2022-10-17T10:50:27.620Z,4.83
2022-10-17T10:53:35.218Z,4.30
2022-10-17T10:56:29.729Z,6.10
2022-10-17T10:59:09.264Z,6.77
2022-10-17T11:02:02.298Z,10.90
2022-10-17T11:04:44.493Z,7.10
2022-10-17T11:07:23.716Z,6.80
2022-10-17T11:09:53.261Z,11.40
2022-10-17T11:12:22.786Z,6.90
2022-10-17T11:15:15.728Z,8.70
2022-10-17T11:17:51.031Z,5.50
2022-10-17T11:20:39.098Z,5.13
2022-10-17T11:23:24.432Z,11.50
2022-10-17T11:25:52.744Z,6.33
2022-10-17T11:28:21.815Z,5.53
2022-10-17T11:31:05.835Z,7.33
2022-10-17T11:33:43.829Z,8.33
2022-10-17T11:36:11.139Z,6.23
2022-10-17T11:39:08.747Z,8.17
2022-10-17T11:41:46.035Z,5.33
2022-10-17T11:44:27.244Z,7.80
2022-10-17T11:47:00.367Z,5.47
2022-10-17T11:49:46.942Z,6.97
2022-10-17T11:52:55.812Z,5.70
2022-10-17T11:55:26.505Z,12.40
2022-10-17T11:58:17.379Z,6.67
2022-10-17T12:01:05.677Z,5.80
2022-10-17T12:03:57.321Z,5.23
2022-10-17T12:06:56.268Z,7.23
2022-10-17T12:09:40.837Z,8.90
2022-10-17T12:12:08.113Z,9.37
2022-10-17T12:14:37.950Z,4.97
2022-10-17T12:17:20.782Z,13.70
2022-10-17T12:19:47.505Z,11.30
2022-10-17T12:22:20.578Z,6.67
2022-10-17T12:25:04.125Z,7.53
2022-10-17T12:27:43.498Z,8.07
2022-10-17T12:30:16.479Z,7.30
2022-10-17T12:33:23.607Z,5.40
2022-10-17T12:36:04.090Z,7.00
2022-10-17T12:38:30.720Z,6.07
2022-10-17T12:41:00.759Z,5.80
2022-10-17T12:43:27.297Z,6.20
2022-10-17T12:46:00.336Z,9.83
2022-10-17T12:48:41.983Z,7.83
2022-10-17T12:51:36.505Z,9.33
2022-10-17T12:54:15.679Z,5.33
2022-10-17T12:56:48.441Z,5.40
2022-10-17T12:59:21.871Z,9.83
2022-10-17T13:01:52.990Z,5.97
2022-10-17T13:04:20.332Z,6.70
2022-10-17T13:06:52.974Z,8.00
2022-10-17T13:09:26.916Z,8.00
2022-10-17T13:11:55.084Z,5.73
2022-10-17T13:14:24.431Z,6.20
2022-10-17T13:16:59.855Z,8.10
2022-10-17T13:19:41.987Z,9.70
2022-10-17T13:22:24.108Z,6.60
2022-10-17T13:24:52.769Z,7.47
2022-10-17T13:27:27.761Z,7.73
2022-10-17T13:29:56.502Z,8.57
2022-10-17T13:32:25.215Z,10.43
2022-10-17T13:35:10.135Z,7.53
2022-10-17T13:37:38.945Z,7.40
2022-10-17T13:40:22.940Z,9.30
2022-10-17T13:42:56.225Z,6.67
2022-10-17T13:45:29.031Z,5.00
2022-10-17T13:47:57.289Z,9.67
2022-10-17T13:50:44.202Z,8.03
2022-10-17T13:53:49.815Z,8.00
2022-10-17T13:56:28.879Z,8.13
2022-10-17T13:59:03.379Z,11.10
2022-10-17T14:01:30.683Z,11.13
2022-10-17T14:04:08.276Z,7.83
2022-10-17T14:06:47.932Z,5.63
2022-10-17T14:09:27.767Z,5.70
2022-10-17T14:12:02.395Z,7.30
2022-10-17T14:14:32.151Z,8.37
2022-10-17T14:17:20.309Z,9.57
2022-10-17T14:20:16.418Z,6.17
2022-10-17T14:22:50.632Z,7.53
2022-10-17T14:25:37.658Z,6.67
2022-10-17T14:28:14.664Z,7.03
2022-10-17T14:30:56.173Z,6.43
2022-10-17T14:33:28.264Z,8.43
2022-10-17T14:35:57.314Z,9.77
2022-10-17T14:38:24.894Z,7.70
2022-10-17T14:41:30.612Z,7.00
2022-10-17T14:44:03.652Z,6.93
2022-10-17T14:46:30.687Z,6.27
2022-10-17T14:49:04.786Z,8.37
2022-10-17T14:51:40.219Z,9.67
2022-10-17T14:54:19.799Z,9.03
2022-10-17T14:56:53.807Z,7.50
2022-10-17T14:59:51.476Z,10.83
2022-10-17T15:02:11.458Z,7.10
2022-10-17T15:04:38.034Z,7.27
2022-10-17T15:07:04.648Z,11.00
2022-10-17T15:09:31.347Z,7.10
2022-10-17T15:12:02.533Z,6.73
2022-10-17T15:14:29.215Z,8.30
2022-10-17T15:16:56.015Z,10.03
2022-10-17T15:19:22.687Z,7.27
2022-10-17T15:21:49.284Z,10.13
2022-10-17T15:24:16.018Z,6.67
2022-10-17T15:26:42.851Z,7.00
2022-10-17T15:29:14.719Z,6.07
2022-10-17T15:31:41.606Z,10.50
2022-10-17T15:34:08.187Z,8.87
2022-10-17T15:36:40.352Z,6.53
2022-10-17T15:39:07.220Z,8.03
2022-10-17T15:41:33.959Z,5.83
2022-10-17T15:44:00.726Z,7.93
2022-10-17T15:46:32.283Z,10.67
2022-10-17T15:49:03.348Z,5.17
2022-10-17T15:51:30.084Z,11.33
2022-10-17T15:53:56.658Z,5.47
2022-10-17T15:56:27.789Z,8.50
2022-10-17T15:58:54.697Z,8.83
2022-10-17T16:01:24.675Z,9.17
2022-10-17T16:03:51.643Z,7.60
2022-10-17T16:06:19.540Z,8.37
2022-10-17T16:08:46.933Z,10.37
2022-10-17T16:11:26.178Z,7.53
2022-10-17T16:13:55.539Z,8.60
2022-10-17T16:16:22.696Z,9.13
2022-10-17T16:18:49.426Z,3.97
2022-10-17T16:21:17.491Z,6.30
2022-10-17T16:23:44.936Z,5.03
2022-10-17T16:26:15.749Z,13.17
2022-10-17T16:28:46.181Z,12.90
2022-10-17T16:31:20.026Z,6.20
2022-10-17T16:33:47.748Z,6.67
2022-10-17T16:36:14.768Z,13.30
2022-10-17T16:38:41.404Z,5.30
2022-10-17T16:41:36.061Z,7.90
2022-10-17T16:44:05.449Z,9.13
2022-10-17T16:46:33.155Z,10.23
2022-10-17T16:48:59.894Z,9.90
2022-10-17T16:51:26.542Z,12.70
2022-10-17T16:53:54.504Z,13.50
2022-10-17T16:56:23.038Z,10.00
2022-10-17T16:58:51.056Z,9.70
2022-10-17T17:01:21.067Z,7.53
2022-10-17T17:03:47.975Z,8.60
2022-10-17T17:06:19.068Z,13.90
2022-10-17T17:08:46.109Z,11.50
2022-10-17T17:11:16.456Z,8.77
2022-10-17T17:13:43.377Z,11.87
2022-10-17T17:16:17.543Z,10.67
2022-10-17T17:18:45.889Z,10.47
2022-10-17T17:21:13.890Z,12.67
2022-10-17T17:23:41.985Z,10.53
2022-10-17T17:26:15.400Z,13.97
2022-10-17T17:28:42.656Z,9.70
2022-10-17T17:31:16.379Z,9.93
2022-10-17T17:33:43.419Z,13.17
2022-10-17T17:36:14.009Z,12.33
2022-10-17T17:38:41.208Z,13.50
2022-10-17T17:41:07.906Z,14.77
2022-10-17T17:43:35.631Z,15.10
2022-10-17T17:46:02.607Z,18.40
2022-10-17T17:48:29.452Z,15.27
2022-10-17T17:50:56.102Z,15.87
2022-10-17T17:53:22.745Z,13.23
2022-10-17T17:56:01.243Z,14.30
2022-10-17T17:58:27.880Z,11.97
2022-10-17T18:00:54.640Z,15.73
2022-10-17T18:03:21.265Z,14.03
2022-10-17T18:05:47.890Z,15.73
2022-10-17T18:08:14.464Z,13.83
2022-10-17T18:10:41.052Z,13.07
2022-10-17T18:13:07.646Z,13.50
2022-10-17T18:15:34.220Z,13.97
2022-10-17T18:18:00.824Z,13.90
2022-10-17T18:20:27.633Z,15.67
2022-10-17T18:22:54.198Z,12.13
2022-10-17T18:25:20.805Z,13.47
2022-10-17T18:27:47.948Z,14.13
2022-10-17T18:30:14.667Z,12.00
2022-10-17T18:32:41.316Z,16.43
2022-10-17T18:35:08.220Z,15.60
2022-10-17T18:37:34.914Z,14.13
2022-10-17T18:40:02.944Z,14.07
2022-10-17T18:42:29.915Z,14.20
2022-10-17T18:44:56.705Z,14.50
2022-10-17T18:47:23.316Z,18.20
2022-10-17T18:49:50.244Z,29.43
2022-10-17T18:52:16.869Z,20.43
2022-10-17T18:54:43.427Z,16.87
2022-10-17T18:57:10.000Z,17.17
2022-10-17T18:59:37.838Z,14.70
2022-10-17T19:02:04.607Z,14.97
2022-10-17T19:04:31.243Z,15.50
2022-10-17T19:06:57.817Z,16.10
2022-10-17T19:09:24.471Z,20.53
2022-10-17T19:11:51.136Z,15.80
2022-10-17T19:14:17.802Z,16.90
2022-10-17T19:16:48.073Z,43.90
2022-10-17T19:19:17.677Z,26.67
2022-10-17T19:21:44.705Z,26.77
2022-10-17T19:24:17.156Z,23.00
2022-10-17T19:26:45.546Z,17.53
2022-10-17T19:29:16.797Z,16.50
2022-10-17T19:31:49.179Z,18.10
2022-10-17T19:34:17.359Z,18.23
2022-10-17T19:36:44.587Z,24.40
2022-10-17T19:39:15.321Z,18.83
2022-10-17T19:41:43.871Z,17.67
2022-10-17T19:44:10.917Z,18.87
2022-10-17T19:46:38.450Z,19.23
2022-10-17T19:49:05.948Z,19.73
2022-10-17T19:51:33.445Z,19.53
2022-10-17T19:54:01.128Z,21.67
2022-10-17T19:56:30.218Z,19.17
2022-10-17T19:58:57.697Z,21.60
2022-10-17T20:01:27.166Z,24.47
2022-10-17T20:03:54.517Z,19.60
2022-10-17T20:06:21.968Z,19.60
2022-10-17T20:08:49.049Z,20.73
2022-10-17T20:11:19.179Z,20.13
2022-10-17T20:13:45.962Z,26.03
2022-10-17T20:16:18.797Z,22.60
2022-10-17T20:18:45.416Z,22.93
2022-10-17T20:21:14.931Z,19.60
2022-10-17T20:23:42.399Z,26.93
2022-10-17T20:29:03.643Z,23.47
2022-10-17T20:31:30.752Z,25.97
2022-10-17T20:33:58.756Z,24.47
2022-10-17T20:36:25.880Z,23.10
2022-10-17T20:38:54.293Z,23.80
2022-10-17T20:41:21.452Z,24.40
2022-10-17T20:43:51.219Z,19.83
2022-10-17T20:46:29.754Z,23.63
2022-10-17T20:49:02.772Z,26.10
2022-10-17T20:51:29.424Z,26.23
2022-10-17T20:56:31.014Z,22.97
2022-10-17T20:59:03.332Z,18.70
2022-10-17T21:01:32.474Z,24.43
2022-10-17T21:04:10.546Z,24.43
2022-10-17T21:06:48.022Z,19.50
2022-10-17T21:09:15.167Z,20.10
2022-10-17T21:11:43.016Z,25.73
2022-10-17T21:14:10.981Z,19.90
2022-10-17T21:16:39.385Z,19.90
2022-10-17T21:19:06.328Z,18.47
2022-10-17T21:21:35.400Z,23.53
2022-10-17T21:24:07.643Z,18.33
2022-10-17T21:26:35.792Z,19.20
2022-10-17T21:29:05.586Z,19.60
2022-10-17T21:31:37.679Z,15.30
2022-10-17T21:34:11.121Z,16.57
2022-10-17T21:36:38.449Z,14.83
2022-10-17T21:39:05.346Z,12.60
2022-10-17T21:41:32.776Z,11.67
2022-10-17T21:44:05.411Z,15.13
2022-10-17T21:46:32.672Z,16.50
2022-10-17T21:49:00.363Z,15.47
2022-10-17T21:51:27.830Z,10.37
2022-10-17T21:53:56.040Z,9.67
2022-10-17T21:56:27.840Z,10.83
2022-10-17T21:58:54.903Z,16.70
2022-10-17T22:01:30.305Z,14.03
2022-10-17T22:04:00.615Z,10.70
2022-10-17T22:06:45.039Z,9.33
2022-10-17T22:09:24.371Z,13.87
2022-10-17T22:11:54.387Z,14.30
2022-10-17T22:14:23.262Z,13.07
2022-10-17T22:16:50.365Z,14.63
2022-10-17T22:19:20.580Z,17.67
2022-10-17T22:21:47.284Z,16.30
2022-10-17T22:24:16.148Z,13.67
2022-10-17T22:26:44.475Z,16.40
2022-10-17T22:29:11.871Z,18.00
2022-10-17T22:31:38.754Z,20.37
2022-10-17T22:34:07.013Z,22.10
2022-10-17T22:36:34.930Z,18.37
2022-10-17T22:39:01.581Z,14.23
2022-10-17T22:41:28.436Z,19.87
2022-10-17T22:43:55.056Z,15.50
2022-10-17T22:46:21.722Z,17.43
2022-10-17T22:48:48.382Z,15.97
2022-10-17T22:51:15.049Z,14.00
2022-10-17T22:53:41.698Z,16.73
2022-10-17T22:56:14.590Z,13.90
2022-10-17T22:58:41.704Z,15.97
2022-10-17T23:01:13.561Z,15.73
2022-10-17T23:03:40.812Z,15.40
2022-10-17T23:06:07.833Z,14.37
2022-10-17T23:08:34.699Z,15.13
2022-10-17T23:11:01.462Z,17.93
2022-10-17T23:13:28.053Z,16.07
2022-10-17T23:15:56.288Z,16.93
2022-10-17T23:18:24.357Z,21.10
2022-10-17T23:20:51.666Z,16.40
2022-10-17T23:23:18.814Z,16.40
2022-10-17T23:25:46.155Z,12.93
2022-10-17T23:28:13.049Z,15.13
2022-10-17T23:30:40.043Z,15.03
2022-10-17T23:33:07.207Z,14.60
2022-10-17T23:35:35.335Z,17.43
2022-10-17T23:38:01.944Z,12.70
2022-10-17T23:40:28.504Z,12.20
2022-10-17T23:42:55.091Z,11.63
2022-10-17T23:45:22.012Z,14.37
2022-10-17T23:47:48.735Z,11.20
2022-10-17T23:50:16.241Z,12.43
2022-10-17T23:52:42.833Z,12.60
2022-10-17T23:55:09.959Z,12.80
2022-10-17T23:57:36.520Z,11.00
